sensor_id;sensor_type;location;lat;lon;timestamp;pressure;altitude;pressure_sealevel;temperature;humidity
47330;BME280;33060;50.178;7.570;2023-12-22T00:02:17;95662.66;;;4.97;100.00
47330;BME280;33060;50.178;7.570;2023-12-22T00:04:44;95662.00;;;5.06;100.00
47330;BME280;33060;50.178;7.570;2023-12-22T00:07:11;95662.19;;;5.16;100.00
47330;BME280;33060;50.178;7.570;2023-12-22T00:09:38;95659.88;;;5.24;100.00
47330;BME280;33060;50.178;7.570;2023-12-22T00:12:04;95667.59;;;5.25;100.00
47330;BME280;33060;50.178;7.570;2023-12-22T00:14:31;95689.88;;;5.18;100.00
47330;BME280;33060;50.178;7.570;2023-12-22T00:16:58;95696.16;;;5.03;100.00
47330;BME280;33060;50.178;7.570;2023-12-22T00:19:25;95708.72;;;5.47;100.00
47330;BME280;33060;50.178;7.570;2023-12-22T00:21:51;95707.59;;;4.89;100.00
47330;BME280;33060;50.178;7.570;2023-12-22T00:24:18;95684.88;;;5.02;100.00
47330;BME280;33060;50.178;7.570;2023-12-22T00:26:45;95693.38;;;4.68;100.00
47330;BME280;33060;50.178;7.570;2023-12-22T00:29:12;95696.94;;;4.79;100.00
47330;BME280;33060;50.178;7.570;2023-12-22T00:31:38;95680.34;;;4.80;100.00
47330;BME280;33060;50.178;7.570;2023-12-22T00:34:05;95679.34;;;4.94;100.00
47330;BME280;33060;50.178;7.570;2023-12-22T00:36:32;95671.03;;;4.89;100.00
47330;BME280;33060;50.178;7.570;2023-12-22T00:38:59;95668.06;;;5.06;100.00
47330;BME280;33060;50.178;7.570;2023-12-22T00:41:26;95663.47;;;5.34;100.00
47330;BME280;33060;50.178;7.570;2023-12-22T00:43:53;95655.41;;;5.37;100.00
47330;BME280;33060;50.178;7.570;2023-12-22T00:46:19;95652.69;;;5.62;100.00
47330;BME280;33060;50.178;7.570;2023-12-22T00:48:46;95643.06;;;5.63;100.00
47330;BME280;33060;50.178;7.570;2023-12-22T00:51:13;95645.00;;;5.72;100.00
47330;BME280;33060;50.178;7.570;2023-12-22T00:53:40;95642.13;;;5.64;100.00
47330;BME280;33060;50.178;7.570;2023-12-22T00:56:06;95641.00;;;5.79;100.00
47330;BME280;33060;50.178;7.570;2023-12-22T00:58:33;95653.38;;;6.01;100.00
47330;BME280;33060;50.178;7.570;2023-12-22T01:01:00;95629.25;;;5.85;100.00
47330;BME280;33060;50.178;7.570;2023-12-22T01:03:27;95650.75;;;6.01;100.00
47330;BME280;33060;50.178;7.570;2023-12-22T01:05:53;95665.38;;;6.04;100.00
47330;BME280;33060;50.178;7.570;2023-12-22T01:08:20;95652.75;;;5.98;100.00
47330;BME280;33060;50.178;7.570;2023-12-22T01:10:47;95664.09;;;6.09;100.00
47330;BME280;33060;50.178;7.570;2023-12-22T01:13:14;95683.25;;;6.10;100.00
47330;BME280;33060;50.178;7.570;2023-12-22T01:15:41;95722.38;;;6.00;100.00
47330;BME280;33060;50.178;7.570;2023-12-22T01:18:10;95725.94;;;5.86;100.00
47330;BME280;33060;50.178;7.570;2023-12-22T01:20:38;95723.56;;;6.07;100.00
47330;BME280;33060;50.178;7.570;2023-12-22T01:23:04;95730.53;;;5.95;100.00
47330;BME280;33060;50.178;7.570;2023-12-22T01:25:31;95731.00;;;5.77;100.00
47330;BME280;33060;50.178;7.570;2023-12-22T01:27:58;95724.34;;;5.97;100.00
47330;BME280;33060;50.178;7.570;2023-12-22T01:30:25;95710.66;;;5.93;100.00
47330;BME280;33060;50.178;7.570;2023-12-22T01:32:52;95713.94;;;6.08;100.00
47330;BME280;33060;50.178;7.570;2023-12-22T01:35:19;95704.41;;;5.83;100.00
47330;BME280;33060;50.178;7.570;2023-12-22T01:37:46;95710.38;;;6.09;100.00
47330;BME280;33060;50.178;7.570;2023-12-22T01:40:14;95708.19;;;5.79;100.00
47330;BME280;33060;50.178;7.570;2023-12-22T01:42:41;95732.44;;;5.81;100.00
47330;BME280;33060;50.178;7.570;2023-12-22T01:45:08;95730.53;;;6.19;100.00
47330;BME280;33060;50.178;7.570;2023-12-22T01:47:35;95747.78;;;6.22;100.00
47330;BME280;33060;50.178;7.570;2023-12-22T01:50:04;95747.78;;;6.22;100.00
47330;BME280;33060;50.178;7.570;2023-12-22T01:52:31;95748.78;;;6.32;100.00
47330;BME280;33060;50.178;7.570;2023-12-22T01:54:58;95757.50;;;6.09;100.00
47330;BME280;33060;50.178;7.570;2023-12-22T01:57:25;95745.72;;;5.90;100.00
47330;BME280;33060;50.178;7.570;2023-12-22T01:59:52;95745.91;;;6.00;100.00
47330;BME280;33060;50.178;7.570;2023-12-22T02:02:19;95737.75;;;6.16;100.00
47330;BME280;33060;50.178;7.570;2023-12-22T02:04:46;95745.19;;;5.98;100.00
47330;BME280;33060;50.178;7.570;2023-12-22T02:07:14;95739.53;;;6.15;100.00
47330;BME280;33060;50.178;7.570;2023-12-22T02:09:41;95719.56;;;6.14;100.00
47330;BME280;33060;50.178;7.570;2023-12-22T02:12:07;95738.44;;;6.07;100.00
47330;BME280;33060;50.178;7.570;2023-12-22T02:14:34;95735.13;;;6.16;100.00
47330;BME280;33060;50.178;7.570;2023-12-22T02:17:31;95724.41;;;6.08;100.00
47330;BME280;33060;50.178;7.570;2023-12-22T02:20:00;95722.72;;;6.07;100.00
47330;BME280;33060;50.178;7.570;2023-12-22T02:22:30;95716.53;;;6.08;100.00
47330;BME280;33060;50.178;7.570;2023-12-22T02:24:57;95733.66;;;6.01;100.00
47330;BME280;33060;50.178;7.570;2023-12-22T02:32:44;95733.72;;;6.12;100.00
47330;BME280;33060;50.178;7.570;2023-12-22T02:35:15;95737.75;;;6.16;100.00
47330;BME280;33060;50.178;7.570;2023-12-22T02:37:45;95743.81;;;6.16;100.00
47330;BME280;33060;50.178;7.570;2023-12-22T02:40:14;95743.34;;;6.11;100.00
47330;BME280;33060;50.178;7.570;2023-12-22T02:42:41;95732.00;;;6.00;100.00
47330;BME280;33060;50.178;7.570;2023-12-22T02:45:13;95722.66;;;6.08;100.00
47330;BME280;33060;50.178;7.570;2023-12-22T02:47:40;95717.41;;;6.08;100.00
47330;BME280;33060;50.178;7.570;2023-12-22T02:50:08;95737.75;;;6.16;100.00
47330;BME280;33060;50.178;7.570;2023-12-22T02:52:35;95763.56;;;6.09;100.00
47330;BME280;33060;50.178;7.570;2023-12-22T02:55:02;95762.69;;;5.85;100.00
47330;BME280;33060;50.178;7.570;2023-12-22T02:57:29;95750.47;;;5.73;100.00
47330;BME280;33060;50.178;7.570;2023-12-22T02:59:56;95756.00;;;5.57;100.00
47330;BME280;33060;50.178;7.570;2023-12-22T03:02:23;95750.41;;;5.61;100.00
47330;BME280;33060;50.178;7.570;2023-12-22T03:04:49;95747.81;;;5.85;100.00
47330;BME280;33060;50.178;7.570;2023-12-22T03:07:16;95756.19;;;5.90;100.00
47330;BME280;33060;50.178;7.570;2023-12-22T03:09:43;95769.00;;;5.82;100.00
47330;BME280;33060;50.178;7.570;2023-12-22T03:12:10;95756.47;;;5.99;100.00
47330;BME280;33060;50.178;7.570;2023-12-22T03:14:37;95769.38;;;5.65;100.00
47330;BME280;33060;50.178;7.570;2023-12-22T03:17:05;95760.34;;;5.69;100.00
47330;BME280;33060;50.178;7.570;2023-12-22T03:19:32;95747.03;;;5.72;100.00
47330;BME280;33060;50.178;7.570;2023-12-22T03:22:00;95719.91;;;5.73;100.00
47330;BME280;33060;50.178;7.570;2023-12-22T03:24:26;95739.53;;;5.55;100.00
47330;BME280;33060;50.178;7.570;2023-12-22T03:26:55;95767.22;;;5.83;100.00
47330;BME280;33060;50.178;7.570;2023-12-22T03:29:22;95771.22;;;5.63;100.00
47330;BME280;33060;50.178;7.570;2023-12-22T03:31:49;95769.72;;;5.48;100.00
47330;BME280;33060;50.178;7.570;2023-12-22T03:34:16;95765.69;;;5.67;100.00
47330;BME280;33060;50.178;7.570;2023-12-22T03:36:43;95760.47;;;5.55;100.00
47330;BME280;33060;50.178;7.570;2023-12-22T03:39:11;95748.16;;;5.57;100.00
47330;BME280;33060;50.178;7.570;2023-12-22T03:41:38;95736.03;;;5.43;100.00
47330;BME280;33060;50.178;7.570;2023-12-22T03:44:04;95736.69;;;5.34;100.00
47330;BME280;33060;50.178;7.570;2023-12-22T03:46:31;95736.25;;;5.40;100.00
47330;BME280;33060;50.178;7.570;2023-12-22T03:48:58;95729.38;;;5.63;100.00
47330;BME280;33060;50.178;7.570;2023-12-22T03:51:24;95733.00;;;5.36;100.00
47330;BME280;33060;50.178;7.570;2023-12-22T03:53:51;95724.91;;;5.52;100.00
47330;BME280;33060;50.178;7.570;2023-12-22T03:56:18;95740.59;;;5.65;100.00
47330;BME280;33060;50.178;7.570;2023-12-22T03:58:45;95733.47;;;5.30;100.00
47330;BME280;33060;50.178;7.570;2023-12-22T04:01:14;95751.94;;;5.40;100.00
47330;BME280;33060;50.178;7.570;2023-12-22T04:03:41;95744.94;;;5.64;100.00
47330;BME280;33060;50.178;7.570;2023-12-22T04:06:08;95758.72;;;5.79;100.00
47330;BME280;33060;50.178;7.570;2023-12-22T04:08:34;95757.38;;;5.50;100.00
47330;BME280;33060;50.178;7.570;2023-12-22T04:11:01;95764.38;;;5.73;100.00
47330;BME280;33060;50.178;7.570;2023-12-22T04:13:28;95756.34;;;5.76;100.00
47330;BME280;33060;50.178;7.570;2023-12-22T04:15:54;95747.59;;;5.88;100.00
47330;BME280;33060;50.178;7.570;2023-12-22T04:18:21;95756.94;;;5.80;100.00
47330;BME280;33060;50.178;7.570;2023-12-22T04:20:48;95762.72;;;5.72;100.00
47330;BME280;33060;50.178;7.570;2023-12-22T04:23:18;95787.16;;;5.60;100.00
47330;BME280;33060;50.178;7.570;2023-12-22T04:25:44;95787.22;;;5.71;100.00
47330;BME280;33060;50.178;7.570;2023-12-22T04:28:11;95781.31;;;5.80;100.00
47330;BME280;33060;50.178;7.570;2023-12-22T04:30:38;95782.50;;;5.76;100.00
47330;BME280;33060;50.178;7.570;2023-12-22T04:33:04;95768.88;;;5.84;100.00
47330;BME280;33060;50.178;7.570;2023-12-22T04:35:31;95775.97;;;5.82;100.00
47330;BME280;33060;50.178;7.570;2023-12-22T04:37:59;95774.03;;;5.73;100.00
47330;BME280;33060;50.178;7.570;2023-12-22T04:40:26;95786.66;;;5.79;100.00
47330;BME280;33060;50.178;7.570;2023-12-22T04:42:54;95793.03;;;5.87;100.00
47330;BME280;33060;50.178;7.570;2023-12-22T04:45:21;95790.13;;;5.92;100.00
47330;BME280;33060;50.178;7.570;2023-12-22T04:47:48;95789.34;;;6.03;100.00
47330;BME280;33060;50.178;7.570;2023-12-22T04:50:15;95795.25;;;5.93;100.00
47330;BME280;33060;50.178;7.570;2023-12-22T04:52:42;95785.06;;;5.89;100.00
47330;BME280;33060;50.178;7.570;2023-12-22T04:55:09;95794.19;;;5.96;100.00
47330;BME280;33060;50.178;7.570;2023-12-22T04:57:36;95783.00;;;5.94;100.00
47330;BME280;33060;50.178;7.570;2023-12-22T05:00:03;95772.97;;;6.12;100.00
47330;BME280;33060;50.178;7.570;2023-12-22T05:02:30;95775.19;;;6.05;100.00
47330;BME280;33060;50.178;7.570;2023-12-22T05:04:56;95778.03;;;5.89;100.00
47330;BME280;33060;50.178;7.570;2023-12-22T05:07:23;95781.66;;;6.12;100.00
47330;BME280;33060;50.178;7.570;2023-12-22T05:09:50;95770.34;;;6.12;100.00
47330;BME280;33060;50.178;7.570;2023-12-22T05:12:18;95773.16;;;6.33;100.00
47330;BME280;33060;50.178;7.570;2023-12-22T05:14:46;95781.38;;;6.04;100.00
47330;BME280;33060;50.178;7.570;2023-12-22T05:17:12;95775.03;;;6.19;100.00
47330;BME280;33060;50.178;7.570;2023-12-22T05:19:39;95775.91;;;6.31;100.00
47330;BME280;33060;50.178;7.570;2023-12-22T05:22:06;95776.16;;;6.28;100.00
47330;BME280;33060;50.178;7.570;2023-12-22T05:24:32;95782.44;;;6.26;100.00
47330;BME280;33060;50.178;7.570;2023-12-22T05:26:59;95787.09;;;6.33;100.00
47330;BME280;33060;50.178;7.570;2023-12-22T05:29:26;95780.72;;;6.13;100.00
47330;BME280;33060;50.178;7.570;2023-12-22T05:31:52;95786.19;;;6.10;100.00
47330;BME280;33060;50.178;7.570;2023-12-22T05:34:19;95790.34;;;6.13;100.00
47330;BME280;33060;50.178;7.570;2023-12-22T05:36:46;95797.66;;;6.20;100.00
47330;BME280;33060;50.178;7.570;2023-12-22T05:39:12;95809.66;;;6.23;100.00
47330;BME280;33060;50.178;7.570;2023-12-22T05:41:39;95817.81;;;6.31;100.00
47330;BME280;33060;50.178;7.570;2023-12-22T05:44:06;95824.94;;;6.05;100.00
47330;BME280;33060;50.178;7.570;2023-12-22T05:46:36;95844.38;;;6.14;100.00
47330;BME280;33060;50.178;7.570;2023-12-22T05:49:05;95826.50;;;6.32;100.00
47330;BME280;33060;50.178;7.570;2023-12-22T05:51:39;95850.56;;;6.37;100.00
47330;BME280;33060;50.178;7.570;2023-12-22T05:54:09;95847.84;;;6.38;100.00
47330;BME280;33060;50.178;7.570;2023-12-22T05:56:39;95849.84;;;6.35;100.00
47330;BME280;33060;50.178;7.570;2023-12-22T05:59:06;95850.28;;;6.29;100.00
47330;BME280;33060;50.178;7.570;2023-12-22T06:01:33;95833.78;;;6.39;100.00
47330;BME280;33060;50.178;7.570;2023-12-22T06:04:00;95838.47;;;6.47;100.00
47330;BME280;33060;50.178;7.570;2023-12-22T06:06:26;95838.75;;;6.55;100.00
47330;BME280;33060;50.178;7.570;2023-12-22T06:08:54;95827.19;;;6.58;100.00
47330;BME280;33060;50.178;7.570;2023-12-22T06:11:21;95839.22;;;6.60;100.00
47330;BME280;33060;50.178;7.570;2023-12-22T06:13:48;95831.03;;;6.65;100.00
47330;BME280;33060;50.178;7.570;2023-12-22T06:16:15;95830.06;;;6.55;100.00
47330;BME280;33060;50.178;7.570;2023-12-22T06:18:44;95822.75;;;6.71;100.00
47330;BME280;33060;50.178;7.570;2023-12-22T06:21:10;95821.34;;;6.89;100.00
47330;BME280;33060;50.178;7.570;2023-12-22T06:23:37;95828.72;;;6.84;100.00
47330;BME280;33060;50.178;7.570;2023-12-22T06:26:11;95834.16;;;6.70;100.00
47330;BME280;33060;50.178;7.570;2023-12-22T06:28:38;95836.88;;;6.68;100.00
47330;BME280;33060;50.178;7.570;2023-12-22T06:31:08;95836.31;;;6.76;100.00
47330;BME280;33060;50.178;7.570;2023-12-22T06:33:35;95840.84;;;6.74;100.00
47330;BME280;33060;50.178;7.570;2023-12-22T06:36:02;95827.28;;;6.80;100.00
47330;BME280;33060;50.178;7.570;2023-12-22T06:38:30;95828.19;;;6.68;100.00
47330;BME280;33060;50.178;7.570;2023-12-22T06:40:57;95838.22;;;6.74;100.00
47330;BME280;33060;50.178;7.570;2023-12-22T06:43:24;95826.34;;;6.81;100.00
47330;BME280;33060;50.178;7.570;2023-12-22T06:45:51;95833.97;;;6.84;100.00
47330;BME280;33060;50.178;7.570;2023-12-22T06:48:21;95832.91;;;6.87;100.00
47330;BME280;33060;50.178;7.570;2023-12-22T06:50:48;95836.09;;;6.79;100.00
47330;BME280;33060;50.178;7.570;2023-12-22T06:53:15;95848.69;;;6.74;100.00
47330;BME280;33060;50.178;7.570;2023-12-22T06:55:51;95857.06;;;6.79;100.00
47330;BME280;33060;50.178;7.570;2023-12-22T06:58:18;95853.53;;;6.91;100.00
47330;BME280;33060;50.178;7.570;2023-12-22T07:00:48;95859.19;;;6.74;100.00
47330;BME280;33060;50.178;7.570;2023-12-22T07:03:15;95869.50;;;6.64;100.00
47330;BME280;33060;50.178;7.570;2023-12-22T07:05:43;95875.75;;;6.50;100.00
47330;BME280;33060;50.178;7.570;2023-12-22T07:08:11;95840.16;;;6.48;100.00
47330;BME280;33060;50.178;7.570;2023-12-22T07:10:38;95843.44;;;6.63;100.00
47330;BME280;33060;50.178;7.570;2023-12-22T07:13:05;95862.88;;;6.71;100.00
47330;BME280;33060;50.178;7.570;2023-12-22T07:15:32;95869.28;;;6.67;100.00
47330;BME280;33060;50.178;7.570;2023-12-22T07:17:58;95871.28;;;6.64;100.00
47330;BME280;33060;50.178;7.570;2023-12-22T07:20:26;95875.19;;;6.58;100.00
47330;BME280;33060;50.178;7.570;2023-12-22T07:22:52;95887.56;;;6.56;100.00
47330;BME280;33060;50.178;7.570;2023-12-22T07:25:21;95896.66;;;6.63;100.00
47330;BME280;33060;50.178;7.570;2023-12-22T07:27:49;95887.50;;;6.69;100.00
47330;BME280;33060;50.178;7.570;2023-12-22T07:30:16;95882.44;;;6.78;100.00
47330;BME280;33060;50.178;7.570;2023-12-22T07:32:44;95885.53;;;6.84;100.00
47330;BME280;33060;50.178;7.570;2023-12-22T07:35:11;95868.44;;;6.67;100.00
47330;BME280;33060;50.178;7.570;2023-12-22T07:37:38;95878.31;;;6.63;100.00
47330;BME280;33060;50.178;7.570;2023-12-22T07:40:06;95888.91;;;6.62;100.00
47330;BME280;33060;50.178;7.570;2023-12-22T07:42:33;95895.19;;;6.83;100.00
47330;BME280;33060;50.178;7.570;2023-12-22T07:45:00;95893.13;;;6.75;100.00
47330;BME280;33060;50.178;7.570;2023-12-22T07:47:29;95881.53;;;6.67;100.00
47330;BME280;33060;50.178;7.570;2023-12-22T07:49:57;95876.38;;;6.78;100.00
47330;BME280;33060;50.178;7.570;2023-12-22T07:52:24;95885.91;;;6.79;100.00
47330;BME280;33060;50.178;7.570;2023-12-22T07:54:51;95877.00;;;6.69;100.00
47330;BME280;33060;50.178;7.570;2023-12-22T07:57:18;95882.72;;;6.63;100.00
47330;BME280;33060;50.178;7.570;2023-12-22T07:59:45;95889.13;;;6.59;100.00
47330;BME280;33060;50.178;7.570;2023-12-22T08:02:11;95880.59;;;6.68;100.00
47330;BME280;33060;50.178;7.570;2023-12-22T08:04:38;95867.50;;;6.68;100.00
47330;BME280;33060;50.178;7.570;2023-12-22T08:07:05;95873.19;;;6.62;100.00
47330;BME280;33060;50.178;7.570;2023-12-22T08:09:32;95882.78;;;6.74;100.00
47330;BME280;33060;50.178;7.570;2023-12-22T08:11:59;95886.75;;;6.91;100.00
47330;BME280;33060;50.178;7.570;2023-12-22T08:14:28;95893.13;;;6.75;100.00
47330;BME280;33060;50.178;7.570;2023-12-22T08:16:55;95894.50;;;6.92;100.00
47330;BME280;33060;50.178;7.570;2023-12-22T08:19:21;95892.03;;;7.02;100.00
47330;BME280;33060;50.178;7.570;2023-12-22T08:21:54;95888.28;;;6.82;100.00
47330;BME280;33060;50.178;7.570;2023-12-22T08:24:21;95885.00;;;7.02;100.00
47330;BME280;33060;50.178;7.570;2023-12-22T08:26:50;95892.53;;;6.96;100.00
47330;BME280;33060;50.178;7.570;2023-12-22T08:29:17;95885.16;;;7.12;100.00
47330;BME280;33060;50.178;7.570;2023-12-22T08:31:45;95891.25;;;7.13;100.00
47330;BME280;33060;50.178;7.570;2023-12-22T08:34:12;95886.59;;;7.05;100.00
47330;BME280;33060;50.178;7.570;2023-12-22T08:36:39;95891.84;;;7.16;100.00
47330;BME280;33060;50.178;7.570;2023-12-22T08:39:06;95884.81;;;7.17;100.00
47330;BME280;33060;50.178;7.570;2023-12-22T08:41:33;95881.50;;;7.26;100.00
47330;BME280;33060;50.178;7.570;2023-12-22T08:44:04;95885.91;;;7.14;100.00
47330;BME280;33060;50.178;7.570;2023-12-22T08:46:32;95874.34;;;7.28;100.00
47330;BME280;33060;50.178;7.570;2023-12-22T08:48:59;95881.25;;;7.29;100.00
47330;BME280;33060;50.178;7.570;2023-12-22T08:51:27;95892.13;;;7.35;100.00
47330;BME280;33060;50.178;7.570;2023-12-22T08:53:54;95892.81;;;7.26;100.00
47330;BME280;33060;50.178;7.570;2023-12-22T08:56:22;95895.63;;;7.12;100.00
47330;BME280;33060;50.178;7.570;2023-12-22T08:58:51;95894.34;;;7.18;100.00
47330;BME280;33060;50.178;7.570;2023-12-22T09:01:18;95902.25;;;7.29;100.00
47330;BME280;33060;50.178;7.570;2023-12-22T09:03:45;95900.13;;;7.34;100.00
47330;BME280;33060;50.178;7.570;2023-12-22T09:06:20;95900.94;;;7.34;100.00
47330;BME280;33060;50.178;7.570;2023-12-22T09:08:48;95895.91;;;7.20;100.00
47330;BME280;33060;50.178;7.570;2023-12-22T09:11:18;95890.59;;;7.33;100.00
47330;BME280;33060;50.178;7.570;2023-12-22T09:13:45;95890.72;;;7.43;100.00
47330;BME280;33060;50.178;7.570;2023-12-22T09:16:12;95897.38;;;7.35;100.00
47330;BME280;33060;50.178;7.570;2023-12-22T09:18:41;95903.72;;;7.55;100.00
47330;BME280;33060;50.178;7.570;2023-12-22T09:21:11;95895.84;;;7.44;100.00
47330;BME280;33060;50.178;7.570;2023-12-22T09:23:38;95893.59;;;7.62;100.00
47330;BME280;33060;50.178;7.570;2023-12-22T09:26:05;95889.44;;;7.48;100.00
47330;BME280;33060;50.178;7.570;2023-12-22T09:28:31;95890.22;;;7.37;100.00
47330;BME280;33060;50.178;7.570;2023-12-22T09:30:58;95901.66;;;7.36;100.00
47330;BME280;33060;50.178;7.570;2023-12-22T09:33:25;95887.50;;;7.61;100.00
47330;BME280;33060;50.178;7.570;2023-12-22T09:35:51;95884.19;;;7.59;100.00
47330;BME280;33060;50.178;7.570;2023-12-22T09:38:19;95867.72;;;7.57;100.00
47330;BME280;33060;50.178;7.570;2023-12-22T09:40:46;95878.34;;;7.56;100.00
47330;BME280;33060;50.178;7.570;2023-12-22T09:43:14;95883.72;;;7.77;100.00
47330;BME280;33060;50.178;7.570;2023-12-22T09:45:41;95880.84;;;7.57;100.00
47330;BME280;33060;50.178;7.570;2023-12-22T09:48:09;95876.81;;;7.64;100.00
47330;BME280;33060;50.178;7.570;2023-12-22T09:50:38;95869.75;;;7.65;100.00
47330;BME280;33060;50.178;7.570;2023-12-22T09:53:06;95884.56;;;7.66;100.00
47330;BME280;33060;50.178;7.570;2023-12-22T09:55:34;95883.97;;;7.85;100.00
47330;BME280;33060;50.178;7.570;2023-12-22T09:58:02;95877.84;;;7.62;100.00
47330;BME280;33060;50.178;7.570;2023-12-22T10:00:31;95875.97;;;7.86;100.00
47330;BME280;33060;50.178;7.570;2023-12-22T10:02:58;95881.81;;;7.79;100.00
47330;BME280;33060;50.178;7.570;2023-12-22T10:05:25;95879.16;;;7.90;100.00
47330;BME280;33060;50.178;7.570;2023-12-22T10:07:52;95875.00;;;7.87;100.00
47330;BME280;33060;50.178;7.570;2023-12-22T10:10:20;95870.00;;;7.84;100.00
47330;BME280;33060;50.178;7.570;2023-12-22T10:12:49;95872.63;;;7.84;100.00
47330;BME280;33060;50.178;7.570;2023-12-22T10:15:17;95868.66;;;7.90;100.00
47330;BME280;33060;50.178;7.570;2023-12-22T10:17:45;95870.56;;;7.88;100.00
47330;BME280;33060;50.178;7.570;2023-12-22T10:20:12;95868.91;;;7.87;100.00
47330;BME280;33060;50.178;7.570;2023-12-22T10:22:39;95862.47;;;7.69;100.00
47330;BME280;33060;50.178;7.570;2023-12-22T10:25:07;95849.47;;;7.78;100.00
47330;BME280;33060;50.178;7.570;2023-12-22T10:27:37;95848.50;;;7.79;100.00
47330;BME280;33060;50.178;7.570;2023-12-22T10:30:04;95851.25;;;7.78;100.00
47330;BME280;33060;50.178;7.570;2023-12-22T10:32:31;95836.47;;;7.77;100.00
47330;BME280;33060;50.178;7.570;2023-12-22T10:34:58;95837.44;;;7.76;100.00
47330;BME280;33060;50.178;7.570;2023-12-22T10:37:24;95826.69;;;7.79;100.00
47330;BME280;33060;50.178;7.570;2023-12-22T10:39:54;95824.16;;;8.00;100.00
47330;BME280;33060;50.178;7.570;2023-12-22T10:42:21;95822.91;;;8.26;100.00
47330;BME280;33060;50.178;7.570;2023-12-22T10:44:48;95830.63;;;7.84;100.00
47330;BME280;33060;50.178;7.570;2023-12-22T10:47:18;95832.75;;;8.02;100.00
47330;BME280;33060;50.178;7.570;2023-12-22T10:49:48;95818.09;;;7.77;100.00
47330;BME280;33060;50.178;7.570;2023-12-22T10:52:18;95809.81;;;8.04;100.00
47330;BME280;33060;50.178;7.570;2023-12-22T10:54:45;95800.03;;;8.06;100.00
47330;BME280;33060;50.178;7.570;2023-12-22T10:57:12;95812.09;;;7.97;100.00
47330;BME280;33060;50.178;7.570;2023-12-22T10:59:45;95801.72;;;7.96;100.00
47330;BME280;33060;50.178;7.570;2023-12-22T11:02:27;95812.97;;;7.75;100.00
47330;BME280;33060;50.178;7.570;2023-12-22T11:04:57;95804.97;;;7.77;100.00
47330;BME280;33060;50.178;7.570;2023-12-22T11:07:28;95815.00;;;7.83;100.00
47330;BME280;33060;50.178;7.570;2023-12-22T11:10:10;95811.19;;;7.76;100.00
47330;BME280;33060;50.178;7.570;2023-12-22T11:12:38;95792.69;;;7.77;100.00
47330;BME280;33060;50.178;7.570;2023-12-22T11:15:06;95799.69;;;7.88;100.00
47330;BME280;33060;50.178;7.570;2023-12-22T11:17:36;95781.38;;;7.65;100.00
47330;BME280;33060;50.178;7.570;2023-12-22T11:20:09;95793.06;;;7.61;100.00
47330;BME280;33060;50.178;7.570;2023-12-22T11:22:36;95780.97;;;7.92;100.00
47330;BME280;33060;50.178;7.570;2023-12-22T11:25:06;95775.66;;;7.60;100.00
47330;BME280;33060;50.178;7.570;2023-12-22T11:27:36;95773.81;;;7.72;100.00
47330;BME280;33060;50.178;7.570;2023-12-22T11:30:07;95769.03;;;7.88;100.00
47330;BME280;33060;50.178;7.570;2023-12-22T11:32:35;95759.31;;;7.57;100.00
47330;BME280;33060;50.178;7.570;2023-12-22T11:35:03;95762.00;;;7.89;100.00
47330;BME280;33060;50.178;7.570;2023-12-22T11:37:32;95756.94;;;7.65;100.00
47330;BME280;33060;50.178;7.570;2023-12-22T11:40:02;95763.56;;;7.91;100.00
47330;BME280;33060;50.178;7.570;2023-12-22T11:42:33;95764.66;;;7.67;100.00
47330;BME280;33060;50.178;7.570;2023-12-22T11:45:03;95757.78;;;7.98;100.00
47330;BME280;33060;50.178;7.570;2023-12-22T11:47:31;95755.28;;;7.96;100.00
47330;BME280;33060;50.178;7.570;2023-12-22T11:49:58;95756.34;;;8.05;100.00
47330;BME280;33060;50.178;7.570;2023-12-22T11:52:26;95752.66;;;7.96;100.00
47330;BME280;33060;50.178;7.570;2023-12-22T11:54:56;95746.75;;;8.15;100.00
47330;BME280;33060;50.178;7.570;2023-12-22T11:57:37;95745.59;;;8.08;100.00
47330;BME280;33060;50.178;7.570;2023-12-22T12:00:06;95739.22;;;8.21;100.00
47330;BME280;33060;50.178;7.570;2023-12-22T12:02:40;95735.41;;;8.14;100.00
47330;BME280;33060;50.178;7.570;2023-12-22T12:05:09;95734.94;;;8.20;100.00
47330;BME280;33060;50.178;7.570;2023-12-22T12:07:44;95737.81;;;8.49;100.00
47330;BME280;33060;50.178;7.570;2023-12-22T12:10:12;95733.72;;;8.25;100.00
47330;BME280;33060;50.178;7.570;2023-12-22T12:12:41;95730.56;;;8.42;100.00
47330;BME280;33060;50.178;7.570;2023-12-22T12:15:16;95719.13;;;8.43;100.00
47330;BME280;33060;50.178;7.570;2023-12-22T12:17:43;95730.69;;;8.40;100.00
47330;BME280;33060;50.178;7.570;2023-12-22T12:20:10;95736.72;;;8.20;100.00
47330;BME280;33060;50.178;7.570;2023-12-22T12:22:38;95723.34;;;8.55;100.00
47330;BME280;33060;50.178;7.570;2023-12-22T12:25:10;95726.88;;;8.33;100.00
47330;BME280;33060;50.178;7.570;2023-12-22T12:28:02;95721.84;;;8.41;100.00
47330;BME280;33060;50.178;7.570;2023-12-22T12:30:30;95720.00;;;8.53;100.00
47330;BME280;33060;50.178;7.570;2023-12-22T12:33:11;95728.31;;;8.58;100.00
47330;BME280;33060;50.178;7.570;2023-12-22T12:35:39;95724.63;;;8.61;100.00
47330;BME280;33060;50.178;7.570;2023-12-22T12:38:11;95730.66;;;8.72;100.00
47330;BME280;33060;50.178;7.570;2023-12-22T12:40:40;95725.28;;;8.53;100.00
47330;BME280;33060;50.178;7.570;2023-12-22T12:43:07;95734.09;;;8.73;100.00
47330;BME280;33060;50.178;7.570;2023-12-22T12:45:34;95733.47;;;8.81;100.00
47330;BME280;33060;50.178;7.570;2023-12-22T12:48:02;95726.56;;;8.80;100.00
47330;BME280;33060;50.178;7.570;2023-12-22T12:50:33;95722.09;;;8.59;100.00
47330;BME280;33060;50.178;7.570;2023-12-22T12:53:00;95736.03;;;8.71;100.00
47330;BME280;33060;50.178;7.570;2023-12-22T12:55:28;95733.78;;;8.66;100.00
47330;BME280;33060;50.178;7.570;2023-12-22T12:57:55;95731.47;;;8.94;100.00
47330;BME280;33060;50.178;7.570;2023-12-22T13:00:33;95740.19;;;8.73;100.00
47330;BME280;33060;50.178;7.570;2023-12-22T13:03:04;95737.50;;;8.85;100.00
47330;BME280;33060;50.178;7.570;2023-12-22T13:05:33;95737.09;;;8.68;100.00
47330;BME280;33060;50.178;7.570;2023-12-22T13:08:13;95741.88;;;8.74;100.00
47330;BME280;33060;50.178;7.570;2023-12-22T13:10:40;95741.88;;;8.74;100.00